Kaisei Maru — JD3114 — position and weather

sailwx.info

Track history (hours):
 
Tides and Currents Weather Stations Pressure Air Temp Water Temp Dewpoint Dewpoint Depression Visibility Wind Speed Wind Dir Waves Ship Positions

Kaisei Maru

Last reported at 2017-Feb-22 22:23 UTC. Time now 2017-Feb-26 06:10 UTC.
Position N 33°40' E 132°21'.

Length 52 m; draft 3.8 m.

Type: Tanker. MMSI: 431001837.

Date/timePositionNaut miles runAvg speedWind from/ knotsBaromVisibWave heightAir tempDewpointWater temp
2017-Feb-22 22:23N 33°40' E 132°21'7 8.5
2017-Feb-22 21:33N 33°45' E 132°27'8 8.4
2017-Feb-22 20:33N 33°51' E 132°33'9 9.0
2017-Feb-22 19:33N 33°57' E 132°41'124 9.5
2017-Feb-22 06:33N 34°36' E 135°04'6 5.5
2017-Feb-22 05:33N 34°39' E 135°10'0 0.0
2017-Feb-22 04:33N 34°39' E 135°10'0 0.0
2017-Feb-22 03:33N 34°39' E 135°10'0 0.0
2017-Feb-22 02:33N 34°39' E 135°10'0 0.0
2017-Feb-22 01:33N 34°39' E 135°10'0 0.0
2017-Feb-22 00:33N 34°39' E 135°10'0 0.0
2017-Feb-21 23:33N 34°39' E 135°10'3 3.0
2017-Feb-21 22:33N 34°41' E 135°12'0 0.1
2017-Feb-21 21:33N 34°41' E 135°12'0 0.0
2017-Feb-21 20:33N 34°41' E 135°12'0 0.0
2017-Feb-21 19:33N 34°41' E 135°12'0 0.0
2017-Feb-21 18:33N 34°41' E 135°12'0 0.0
2017-Feb-21 17:33N 34°41' E 135°12'0 0.0
2017-Feb-21 16:33N 34°41' E 135°12'0 0.0
2017-Feb-21 15:33N 34°41' E 135°12'0 0.0
2017-Feb-21 14:33N 34°41' E 135°12'0 0.0
2017-Feb-21 13:33N 34°41' E 135°12'0 0.0
2017-Feb-21 12:33N 34°41' E 135°12'0 0.0
2017-Feb-21 11:33N 34°41' E 135°12'0 0.0
2017-Feb-21 10:33N 34°41' E 135°12'0 0.0
2017-Feb-21 09:33N 34°41' E 135°12'0 0.0
2017-Feb-21 08:33N 34°41' E 135°12'0 0.0
2017-Feb-21 07:33N 34°41' E 135°12'0 0.0
2017-Feb-21 06:33N 34°41' E 135°12'0 0.0
2017-Feb-21 05:33N 34°41' E 135°12'0 0.0
2017-Feb-21 04:33N 34°41' E 135°12'0 0.0
2017-Feb-21 03:33N 34°41' E 135°12'0 0.0
2017-Feb-21 02:33N 34°41' E 135°12'0 0.0
2017-Feb-21 01:33N 34°41' E 135°12'0 0.0
2017-Feb-21 00:33N 34°41' E 135°12'0 0.0
2017-Feb-20 23:33N 34°41' E 135°12'0 0.0
2017-Feb-20 22:31N 34°41' E 135°12'0 0.0
2017-Feb-20 21:33N 34°41' E 135°12'0 0.0
2017-Feb-20 20:33N 34°41' E 135°12'0 0.0
2017-Feb-20 19:33N 34°41' E 135°12'0 0.0
2017-Feb-20 18:33N 34°41' E 135°12'0 0.0
2017-Feb-20 17:33N 34°41' E 135°12'0 0.0
2017-Feb-20 16:33N 34°41' E 135°12'0 0.0
2017-Feb-20 15:33N 34°41' E 135°12'0 0.0
2017-Feb-20 14:33N 34°41' E 135°12'0 0.0
2017-Feb-20 13:33N 34°41' E 135°12'0 0.0
2017-Feb-20 12:33N 34°41' E 135°12'0 0.0
2017-Feb-20 11:33N 34°41' E 135°12'0 0.0
2017-Feb-20 10:33N 34°41' E 135°12'0 0.0
2017-Feb-20 09:33N 34°41' E 135°12'0 0.0
2017-Feb-20 08:33N 34°41' E 135°12'1 0.6
2017-Feb-20 07:33N 34°41' E 135°13'10 9.9
2017-Feb-20 06:33N 34°32' E 135°18'6 6.1
2017-Feb-20 05:32N 34°26' E 135°19'0 0.0
2017-Feb-20 04:29N 34°26' E 135°19'1 0.8
2017-Feb-20 03:33N 34°27' E 135°19'0 0.1
2017-Feb-20 01:30N 34°26' E 135°19'0 0.0
2017-Feb-20 00:17N 34°26' E 135°19'0 0.0
2017-Feb-19 23:24N 34°26' E 135°19'6 6.3
2017-Feb-19 22:31N 34°32' E 135°17'1010.2
2017-Feb-19 21:33N 34°41' E 135°13'1 0.9
2017-Feb-19 20:33N 34°41' E 135°12'0 0.0
2017-Feb-19 19:33N 34°41' E 135°12'0 0.0
2017-Feb-19 18:33N 34°41' E 135°12'0 0.0
2017-Feb-19 17:33N 34°41' E 135°12'0 0.0
2017-Feb-19 16:33N 34°41' E 135°12'0 0.0
2017-Feb-19 15:33N 34°41' E 135°12'0 0.0
2017-Feb-19 14:33N 34°41' E 135°12'0 0.0
2017-Feb-19 13:33N 34°41' E 135°12'0 0.0
2017-Feb-19 12:33N 34°41' E 135°12'0 0.0
2017-Feb-19 11:33N 34°41' E 135°12'0 0.0
2017-Feb-19 10:33N 34°41' E 135°12'0 0.0
2017-Feb-19 09:33N 34°41' E 135°12'0 0.0
2017-Feb-19 08:33N 34°41' E 135°12'0 0.0
2017-Feb-19 07:33N 34°41' E 135°12'0 0.0
2017-Feb-19 06:33N 34°41' E 135°12'8 7.9
2017-Feb-19 05:33N 34°35' E 135°06'12510.4
2017-Feb-18 17:33N 33°56' E 132°42'1211.8
2017-Feb-18 16:33N 33°51' E 132°29'1311.7
2017-Feb-18 15:26N 33°50' E 132°13'  
2017-Feb-14 10:32N 34°11' E 134°57'1411.5
2017-Feb-14 09:18N 34°24' E 135°03'811.1
2017-Feb-14 08:32N 34°29' E 135°12'1111.0
2017-Feb-14 07:33N 34°32' E 135°24'1 0.1
2017-Feb-13 23:17N 34°31' E 135°25'0 0.1
2017-Feb-13 22:21N 34°31' E 135°25'0 0.0
2017-Feb-13 21:27N 34°31' E 135°25'0 0.1
2017-Feb-13 20:32N 34°31' E 135°25'0 0.0
2017-Feb-13 19:27N 34°31' E 135°25'0 0.0
2017-Feb-13 18:30N 34°31' E 135°25'0 0.0
2017-Feb-13 17:33N 34°31' E 135°25'0 0.0
2017-Feb-13 16:33N 34°31' E 135°25'0 0.0
2017-Feb-13 15:33N 34°31' E 135°25'3 2.7
2017-Feb-13 14:33N 34°33' E 135°23'8 8.3
2017-Feb-13 13:33N 34°40' E 135°17'0 0.0
2017-Feb-13 12:33N 34°40' E 135°17'0 0.0
2017-Feb-13 11:33N 34°40' E 135°17'0 0.0
2017-Feb-13 10:33N 34°40' E 135°17'0 0.5
2017-Feb-13 09:33N 34°41' E 135°17'4 4.1
2017-Feb-13 08:33N 34°41' E 135°12'0 0.0
2017-Feb-13 07:33N 34°41' E 135°12'0 0.0
2017-Feb-13 06:33N 34°41' E 135°12'0 0.0
2017-Feb-13 05:33N 34°41' E 135°12'0 0.0
2017-Feb-13 04:33N 34°41' E 135°12'0 0.0
2017-Feb-13 03:32N 34°41' E 135°12'0 0.0
2017-Feb-13 02:33N 34°41' E 135°12'0 0.0
2017-Feb-13 01:33N 34°41' E 135°12'0 0.0
2017-Feb-13 00:33N 34°41' E 135°12'0 0.0
2017-Feb-12 23:33N 34°41' E 135°12'0 0.0
2017-Feb-12 22:33N 34°41' E 135°12'  
Track history (hours):
 
Tides and Currents Weather Stations Pressure Air Temp Water Temp Dewpoint Dewpoint Depression Visibility Wind Speed Wind Dir Waves Ship Positions

Kaisei Maru

Last reported at 2017-Feb-22 22:23 UTC. Time now 2017-Feb-26 06:10 UTC.
Position N 33°40' E 132°21'.

Length 52 m; draft 3.8 m.

Type: Tanker. MMSI: 431001837.

Date/timePositionNaut miles runAvg speedWind from/ knotsBaromVisibWave heightAir tempDewpointWater temp
2017-Feb-22 22:23N 33°40' E 132°21'7 8.5
2017-Feb-22 21:33N 33°45' E 132°27'8 8.4
2017-Feb-22 20:33N 33°51' E 132°33'9 9.0
2017-Feb-22 19:33N 33°57' E 132°41'124 9.5
2017-Feb-22 06:33N 34°36' E 135°04'6 5.5
2017-Feb-22 05:33N 34°39' E 135°10'0 0.0
2017-Feb-22 04:33N 34°39' E 135°10'0 0.0
2017-Feb-22 03:33N 34°39' E 135°10'0 0.0
2017-Feb-22 02:33N 34°39' E 135°10'0 0.0
2017-Feb-22 01:33N 34°39' E 135°10'0 0.0
2017-Feb-22 00:33N 34°39' E 135°10'0 0.0
2017-Feb-21 23:33N 34°39' E 135°10'3 3.0
2017-Feb-21 22:33N 34°41' E 135°12'0 0.1
2017-Feb-21 21:33N 34°41' E 135°12'0 0.0
2017-Feb-21 20:33N 34°41' E 135°12'0 0.0
2017-Feb-21 19:33N 34°41' E 135°12'0 0.0
2017-Feb-21 18:33N 34°41' E 135°12'0 0.0
2017-Feb-21 17:33N 34°41' E 135°12'0 0.0
2017-Feb-21 16:33N 34°41' E 135°12'0 0.0
2017-Feb-21 15:33N 34°41' E 135°12'0 0.0
2017-Feb-21 14:33N 34°41' E 135°12'0 0.0
2017-Feb-21 13:33N 34°41' E 135°12'0 0.0
2017-Feb-21 12:33N 34°41' E 135°12'0 0.0
2017-Feb-21 11:33N 34°41' E 135°12'0 0.0
2017-Feb-21 10:33N 34°41' E 135°12'0 0.0
2017-Feb-21 09:33N 34°41' E 135°12'0 0.0
2017-Feb-21 08:33N 34°41' E 135°12'0 0.0
2017-Feb-21 07:33N 34°41' E 135°12'0 0.0
2017-Feb-21 06:33N 34°41' E 135°12'0 0.0
2017-Feb-21 05:33N 34°41' E 135°12'0 0.0
2017-Feb-21 04:33N 34°41' E 135°12'0 0.0
2017-Feb-21 03:33N 34°41' E 135°12'0 0.0
2017-Feb-21 02:33N 34°41' E 135°12'0 0.0
2017-Feb-21 01:33N 34°41' E 135°12'0 0.0
2017-Feb-21 00:33N 34°41' E 135°12'0 0.0
2017-Feb-20 23:33N 34°41' E 135°12'0 0.0
2017-Feb-20 22:31N 34°41' E 135°12'0 0.0
2017-Feb-20 21:33N 34°41' E 135°12'0 0.0
2017-Feb-20 20:33N 34°41' E 135°12'0 0.0
2017-Feb-20 19:33N 34°41' E 135°12'0 0.0
2017-Feb-20 18:33N 34°41' E 135°12'0 0.0
2017-Feb-20 17:33N 34°41' E 135°12'0 0.0
2017-Feb-20 16:33N 34°41' E 135°12'0 0.0
2017-Feb-20 15:33N 34°41' E 135°12'0 0.0
2017-Feb-20 14:33N 34°41' E 135°12'0 0.0
2017-Feb-20 13:33N 34°41' E 135°12'0 0.0
2017-Feb-20 12:33N 34°41' E 135°12'0 0.0
2017-Feb-20 11:33N 34°41' E 135°12'0 0.0
2017-Feb-20 10:33N 34°41' E 135°12'0 0.0
2017-Feb-20 09:33N 34°41' E 135°12'0 0.0
2017-Feb-20 08:33N 34°41' E 135°12'1 0.6
2017-Feb-20 07:33N 34°41' E 135°13'10 9.9
2017-Feb-20 06:33N 34°32' E 135°18'6 6.1
2017-Feb-20 05:32N 34°26' E 135°19'0 0.0
2017-Feb-20 04:29N 34°26' E 135°19'1 0.8
2017-Feb-20 03:33N 34°27' E 135°19'0 0.1
2017-Feb-20 01:30N 34°26' E 135°19'0 0.0
2017-Feb-20 00:17N 34°26' E 135°19'0 0.0
2017-Feb-19 23:24N 34°26' E 135°19'6 6.3
2017-Feb-19 22:31N 34°32' E 135°17'1010.2
2017-Feb-19 21:33N 34°41' E 135°13'1 0.9
2017-Feb-19 20:33N 34°41' E 135°12'0 0.0
2017-Feb-19 19:33N 34°41' E 135°12'0 0.0
2017-Feb-19 18:33N 34°41' E 135°12'0 0.0
2017-Feb-19 17:33N 34°41' E 135°12'0 0.0
2017-Feb-19 16:33N 34°41' E 135°12'0 0.0
2017-Feb-19 15:33N 34°41' E 135°12'0 0.0
2017-Feb-19 14:33N 34°41' E 135°12'0 0.0
2017-Feb-19 13:33N 34°41' E 135°12'0 0.0
2017-Feb-19 12:33N 34°41' E 135°12'0 0.0
2017-Feb-19 11:33N 34°41' E 135°12'0 0.0
2017-Feb-19 10:33N 34°41' E 135°12'0 0.0
2017-Feb-19 09:33N 34°41' E 135°12'0 0.0
2017-Feb-19 08:33N 34°41' E 135°12'0 0.0
2017-Feb-19 07:33N 34°41' E 135°12'0 0.0
2017-Feb-19 06:33N 34°41' E 135°12'8 7.9
2017-Feb-19 05:33N 34°35' E 135°06'12510.4
2017-Feb-18 17:33N 33°56' E 132°42'1211.8
2017-Feb-18 16:33N 33°51' E 132°29'1311.7
2017-Feb-18 15:26N 33°50' E 132°13'  
2017-Feb-14 10:32N 34°11' E 134°57'1411.5
2017-Feb-14 09:18N 34°24' E 135°03'811.1
2017-Feb-14 08:32N 34°29' E 135°12'1111.0
2017-Feb-14 07:33N 34°32' E 135°24'1 0.1
2017-Feb-13 23:17N 34°31' E 135°25'0 0.1
2017-Feb-13 22:21N 34°31' E 135°25'0 0.0
2017-Feb-13 21:27N 34°31' E 135°25'0 0.1
2017-Feb-13 20:32N 34°31' E 135°25'0 0.0
2017-Feb-13 19:27N 34°31' E 135°25'0 0.0
2017-Feb-13 18:30N 34°31' E 135°25'0 0.0
2017-Feb-13 17:33N 34°31' E 135°25'0 0.0
2017-Feb-13 16:33N 34°31' E 135°25'0 0.0
2017-Feb-13 15:33N 34°31' E 135°25'3 2.7
2017-Feb-13 14:33N 34°33' E 135°23'8 8.3
2017-Feb-13 13:33N 34°40' E 135°17'0 0.0
2017-Feb-13 12:33N 34°40' E 135°17'0 0.0
2017-Feb-13 11:33N 34°40' E 135°17'0 0.0
2017-Feb-13 10:33N 34°40' E 135°17'0 0.5
2017-Feb-13 09:33N 34°41' E 135°17'4 4.1
2017-Feb-13 08:33N 34°41' E 135°12'0 0.0
2017-Feb-13 07:33N 34°41' E 135°12'0 0.0
2017-Feb-13 06:33N 34°41' E 135°12'0 0.0
2017-Feb-13 05:33N 34°41' E 135°12'0 0.0
2017-Feb-13 04:33N 34°41' E 135°12'0 0.0
2017-Feb-13 03:32N 34°41' E 135°12'0 0.0
2017-Feb-13 02:33N 34°41' E 135°12'0 0.0
2017-Feb-13 01:33N 34°41' E 135°12'0 0.0
2017-Feb-13 00:33N 34°41' E 135°12'0 0.0
2017-Feb-12 23:33N 34°41' E 135°12'0 0.0
2017-Feb-12 22:33N 34°41' E 135°12'  

Dump ship's entire track history